createdAt,value
2023-04-22T00:00:09.285Z,78.33
2023-04-22T00:02:37.465Z,78.46
2023-04-22T00:05:06.276Z,79.72
2023-04-22T00:07:33.136Z,79.16
2023-04-22T00:09:59.994Z,78.52
2023-04-22T00:12:26.594Z,79.36
2023-04-22T00:14:53.115Z,78.06
2023-04-22T00:17:19.876Z,77.76
2023-04-22T00:19:46.516Z,77.92
2023-04-22T00:22:13.111Z,78.11
2023-04-22T00:24:39.668Z,78.09
2023-04-22T00:27:06.301Z,78.78
2023-04-22T00:29:32.833Z,79.90
2023-04-22T00:31:59.538Z,80.12
2023-04-22T00:34:26.035Z,79.82
2023-04-22T00:36:52.649Z,79.99
2023-04-22T00:39:19.188Z,80.13
2023-04-22T00:41:46.460Z,80.64
2023-04-22T00:44:13.101Z,78.24
2023-04-22T00:46:39.935Z,79.23
2023-04-22T00:49:07.738Z,79.65
2023-04-22T00:51:34.608Z,79.22
2023-04-22T00:54:04.734Z,79.31
2023-04-22T00:56:34.036Z,78.97
2023-04-22T00:59:00.642Z,79.18
2023-04-22T01:01:28.191Z,79.01
2023-04-22T01:03:55.019Z,79.55
2023-04-22T01:06:24.029Z,79.92
2023-04-22T01:08:52.859Z,80.67
2023-04-22T01:11:21.191Z,81.90
2023-04-22T01:13:47.763Z,81.74
2023-04-22T01:16:14.546Z,81.79
2023-04-22T01:18:41.745Z,82.60
2023-04-22T01:21:08.371Z,82.72
2023-04-22T01:23:35.036Z,82.43
2023-04-22T01:26:01.749Z,83.01
2023-04-22T01:28:29.057Z,82.98
2023-04-22T01:30:56.287Z,83.05
2023-04-22T01:33:23.402Z,83.55
2023-04-22T01:35:50.021Z,82.71
2023-04-22T01:38:16.617Z,82.37
2023-04-22T01:40:43.178Z,82.46
2023-04-22T01:43:09.692Z,81.94
2023-04-22T01:45:36.872Z,81.62
2023-04-22T01:48:04.903Z,81.18
2023-04-22T01:50:31.562Z,80.47
2023-04-22T01:52:58.635Z,80.34
2023-04-22T01:55:25.226Z,81.13
2023-04-22T01:57:52.565Z,79.85
2023-04-22T02:00:19.331Z,80.47
2023-04-22T02:02:46.029Z,80.62
2023-04-22T02:05:12.793Z,81.55
2023-04-22T02:07:39.401Z,82.03
2023-04-22T02:10:06.696Z,83.43
2023-04-22T02:12:33.272Z,83.15
2023-04-22T02:15:00.047Z,83.80
2023-04-22T02:17:27.248Z,83.51
2023-04-22T02:19:53.939Z,83.55
2023-04-22T02:22:22.032Z,83.52
2023-04-22T02:24:48.789Z,82.73
2023-04-22T02:27:15.312Z,82.89
2023-04-22T02:29:42.133Z,82.13
2023-04-22T02:32:08.855Z,81.29
2023-04-22T02:34:36.514Z,80.94
2023-04-22T02:37:03.137Z,82.31
2023-04-22T02:39:29.776Z,83.45
2023-04-22T02:41:56.372Z,84.13
2023-04-22T02:44:23.094Z,84.17
2023-04-22T02:46:49.731Z,84.60
2023-04-22T02:49:16.345Z,84.72
2023-04-22T02:51:42.914Z,84.52
2023-04-22T02:54:09.584Z,85.68
2023-04-22T02:56:41.151Z,86.57
2023-04-22T02:59:07.670Z,86.00
2023-04-22T03:01:34.354Z,83.59
2023-04-22T03:04:01.286Z,84.18
2023-04-22T03:06:27.895Z,84.30
2023-04-22T03:08:54.443Z,85.55
2023-04-22T03:11:20.968Z,85.39
2023-04-22T03:13:47.594Z,85.17
2023-04-22T03:16:14.183Z,85.27
2023-04-22T03:18:40.711Z,85.53
2023-04-22T03:21:07.496Z,85.44
2023-04-22T03:23:34.135Z,86.15
2023-04-22T03:26:00.749Z,85.67
2023-04-22T03:28:27.341Z,85.70
2023-04-22T03:30:53.915Z,84.40
2023-04-22T03:33:20.667Z,80.79
2023-04-22T03:35:50.447Z,80.23
2023-04-22T03:38:17.025Z,80.96
2023-04-22T03:40:43.711Z,81.21
2023-04-22T03:43:10.302Z,82.25
2023-04-22T03:45:37.027Z,83.81
2023-04-22T03:48:03.878Z,84.45
2023-04-22T03:50:30.637Z,84.23
2023-04-22T03:52:57.160Z,84.92
2023-04-22T03:55:23.715Z,85.27
2023-04-22T03:57:50.307Z,85.35
2023-04-22T04:00:16.927Z,84.87
2023-04-22T04:02:43.817Z,84.53
2023-04-22T04:05:11.249Z,84.37
2023-04-22T04:07:38.219Z,83.38
2023-04-22T04:10:05.581Z,81.97
2023-04-22T04:12:32.142Z,80.59
2023-04-22T04:14:58.675Z,75.91
2023-04-22T04:17:25.936Z,73.98
2023-04-22T04:19:54.226Z,72.40
2023-04-22T04:22:21.555Z,70.84
2023-04-22T04:24:48.691Z,71.23
2023-04-22T04:27:15.276Z,69.33
2023-04-22T04:29:42.372Z,68.69
2023-04-22T04:32:10.041Z,68.67
2023-04-22T04:34:39.468Z,67.32
2023-04-22T04:37:05.940Z,67.37
2023-04-22T04:39:32.980Z,67.37
2023-04-22T04:42:00.480Z,67.53
2023-04-22T04:44:27.461Z,66.95
2023-04-22T04:46:54.802Z,66.48
2023-04-22T04:49:21.889Z,66.76
2023-04-22T04:51:48.558Z,66.84
2023-04-22T04:54:15.742Z,66.39
2023-04-22T04:56:42.640Z,66.63
2023-04-22T04:59:09.360Z,66.48
2023-04-22T05:01:35.954Z,66.71
2023-04-22T05:04:02.887Z,66.08
2023-04-22T05:06:29.806Z,66.22
2023-04-22T05:08:56.359Z,64.87
2023-04-22T05:11:22.877Z,65.24
2023-04-22T05:13:49.397Z,64.76
2023-04-22T05:16:16.051Z,64.54
2023-04-22T05:18:42.737Z,65.20
2023-04-22T05:21:09.457Z,64.99
2023-04-22T05:23:36.014Z,64.74
2023-04-22T05:26:02.649Z,64.05
2023-04-22T05:28:29.417Z,64.27
2023-04-22T05:30:55.961Z,63.82
2023-04-22T05:33:22.535Z,64.74
2023-04-22T05:35:49.085Z,64.03
2023-04-22T05:38:15.788Z,64.66
2023-04-22T05:40:42.367Z,64.25
2023-04-22T05:43:09.227Z,63.90
2023-04-22T05:45:35.901Z,64.84
2023-04-22T05:48:02.576Z,63.88
2023-04-22T05:50:29.136Z,63.94
2023-04-22T05:52:55.793Z,63.86
2023-04-22T05:55:22.364Z,63.61
2023-04-22T05:57:48.931Z,63.19
2023-04-22T06:00:16.210Z,63.05
2023-04-22T06:03:00.546Z,63.40
2023-04-22T06:05:27.957Z,63.40
2023-04-22T06:07:54.582Z,63.01
2023-04-22T06:10:21.257Z,62.63
2023-04-22T06:12:47.791Z,62.43
2023-04-22T06:15:14.352Z,62.28
2023-04-22T06:17:41.012Z,62.53
2023-04-22T06:20:08.081Z,61.91
2023-04-22T06:22:34.646Z,61.76
2023-04-22T06:25:01.217Z,61.06
2023-04-22T06:27:27.796Z,61.53
2023-04-22T06:29:57.357Z,61.84
2023-04-22T06:32:27.082Z,61.12
2023-04-22T06:34:55.807Z,60.97
2023-04-22T06:37:22.436Z,60.19
2023-04-22T06:39:49.263Z,60.10
2023-04-22T06:42:17.288Z,60.07
2023-04-22T06:44:43.842Z,59.43
2023-04-22T06:47:10.389Z,59.67
2023-04-22T06:49:39.680Z,59.35
2023-04-22T06:52:06.593Z,59.66
2023-04-22T06:54:36.787Z,59.31
2023-04-22T06:57:03.599Z,59.22
2023-04-22T06:59:30.285Z,58.67
2023-04-22T07:01:56.933Z,57.83
2023-04-22T07:04:23.549Z,58.07
2023-04-22T07:06:50.326Z,58.38
2023-04-22T07:09:16.856Z,57.56
2023-04-22T07:11:43.384Z,57.79
2023-04-22T07:14:10.208Z,58.08
2023-04-22T07:16:36.835Z,56.64
2023-04-22T07:19:04.735Z,56.67
2023-04-22T07:21:32.497Z,56.38
2023-04-22T07:23:59.035Z,56.07
2023-04-22T07:26:25.760Z,55.00
2023-04-22T07:28:52.343Z,54.57
2023-04-22T07:31:18.950Z,54.33
2023-04-22T07:33:45.523Z,54.41
2023-04-22T07:36:12.042Z,54.31
2023-04-22T07:38:38.615Z,54.69
2023-04-22T07:41:05.252Z,54.32
2023-04-22T07:43:31.824Z,53.68
2023-04-22T07:45:58.428Z,53.91
2023-04-22T07:48:25.176Z,53.05
2023-04-22T07:50:51.702Z,53.32
2023-04-22T07:53:18.402Z,52.44
2023-04-22T07:55:45.074Z,51.28
2023-04-22T07:58:11.932Z,51.61
2023-04-22T08:00:38.524Z,51.09
2023-04-22T08:03:05.365Z,50.25
2023-04-22T08:05:32.073Z,50.05
2023-04-22T08:07:58.608Z,49.55
2023-04-22T08:10:25.325Z,50.34
2023-04-22T08:12:51.916Z,50.52
2023-04-22T08:15:18.670Z,49.39
2023-04-22T08:17:45.362Z,49.87
2023-04-22T08:20:12.354Z,49.71
2023-04-22T08:22:38.942Z,49.15
2023-04-22T08:25:06.723Z,49.22
2023-04-22T08:27:33.351Z,48.95
2023-04-22T08:29:59.938Z,48.72
2023-04-22T08:32:26.844Z,47.72
2023-04-22T08:34:57.535Z,47.74
2023-04-22T08:37:28.125Z,46.74
2023-04-22T08:39:54.663Z,50.01
2023-04-22T08:42:22.875Z,46.51
2023-04-22T08:44:50.083Z,45.23
2023-04-22T08:47:19.196Z,44.88
2023-04-22T08:49:46.550Z,44.59
2023-04-22T08:52:15.421Z,44.65
2023-04-22T08:54:42.373Z,44.94
2023-04-22T08:57:11.104Z,43.52
2023-04-22T08:59:39.219Z,43.06
2023-04-22T09:02:07.608Z,43.28
2023-04-22T09:04:34.713Z,42.87
2023-04-22T09:07:01.996Z,43.25
2023-04-22T09:09:30.812Z,41.74
2023-04-22T09:11:58.337Z,41.73
2023-04-22T09:14:26.215Z,41.49
2023-04-22T09:16:52.804Z,40.33
2023-04-22T09:19:24.276Z,40.75
2023-04-22T09:21:53.669Z,39.91
2023-04-22T09:24:20.930Z,40.61
2023-04-22T09:26:48.028Z,39.95
2023-04-22T09:29:16.317Z,39.36
2023-04-22T09:31:43.034Z,38.23
2023-04-22T09:34:09.615Z,38.22
2023-04-22T09:36:39.446Z,39.33
2023-04-22T09:39:08.140Z,38.86
2023-04-22T09:41:40.054Z,38.38
2023-04-22T09:44:14.372Z,37.04
2023-04-22T09:46:43.307Z,37.18
2023-04-22T09:49:09.993Z,36.56
2023-04-22T09:51:41.024Z,36.19
2023-04-22T09:54:11.510Z,35.69
2023-04-22T09:56:48.833Z,35.66
2023-04-22T09:59:23.633Z,36.55
2023-04-22T10:01:53.642Z,34.93
2023-04-22T10:04:25.583Z,36.56
2023-04-22T10:06:56.292Z,35.72
2023-04-22T10:09:24.471Z,36.53
2023-04-22T10:11:55.892Z,35.64
2023-04-22T10:14:23.192Z,35.96
2023-04-22T10:16:52.961Z,35.85
2023-04-22T10:19:22.272Z,35.99
2023-04-22T10:21:53.131Z,36.01
2023-04-22T10:24:20.624Z,35.26
2023-04-22T10:27:10.690Z,36.70
2023-04-22T10:29:43.452Z,35.57
2023-04-22T10:32:11.025Z,35.79
2023-04-22T10:34:41.078Z,34.53
2023-04-22T10:37:14.289Z,35.31
2023-04-22T10:39:43.310Z,34.85
2023-04-22T10:42:15.809Z,34.49
2023-04-22T10:44:50.558Z,34.64
2023-04-22T10:47:33.069Z,34.89
2023-04-22T10:50:26.587Z,34.32
2023-04-22T10:52:57.704Z,33.09
2023-04-22T10:55:25.645Z,34.54
2023-04-22T10:57:54.646Z,35.08
2023-04-22T11:00:23.205Z,35.39
2023-04-22T11:03:08.012Z,34.62
2023-04-22T11:05:35.837Z,33.75
2023-04-22T11:08:08.267Z,33.48
2023-04-22T11:10:44.152Z,34.06
2023-04-22T11:13:14.439Z,35.16
2023-04-22T11:15:43.921Z,34.26
2023-04-22T11:18:13.705Z,34.29
2023-04-22T11:20:40.446Z,35.05
2023-04-22T11:23:07.249Z,33.90
2023-04-22T11:25:33.815Z,34.17
2023-04-22T11:28:00.457Z,34.19
2023-04-22T11:30:28.574Z,33.85
2023-04-22T11:32:59.209Z,33.89
2023-04-22T11:35:28.732Z,34.34
2023-04-22T11:37:57.598Z,33.76
2023-04-22T11:40:31.598Z,33.41
2023-04-22T11:43:00.275Z,33.03
2023-04-22T11:45:28.621Z,33.05
2023-04-22T11:47:56.565Z,32.48
2023-04-22T11:50:28.689Z,32.75
2023-04-22T11:53:04.476Z,32.09
2023-04-22T11:55:31.002Z,31.36
2023-04-22T11:58:01.840Z,31.44
2023-04-22T12:00:31.883Z,32.74
2023-04-22T12:03:15.270Z,33.06
2023-04-22T12:05:54.067Z,34.16
2023-04-22T12:08:23.515Z,33.50
2023-04-22T12:10:55.145Z,34.47
2023-04-22T12:13:50.620Z,32.80
2023-04-22T12:16:20.646Z,31.44
2023-04-22T12:18:54.925Z,32.95
2023-04-22T12:21:28.446Z,32.62
2023-04-22T12:23:59.046Z,34.85
2023-04-22T12:26:29.671Z,31.60
2023-04-22T12:29:01.227Z,33.46
2023-04-22T12:31:28.314Z,32.63
2023-04-22T12:33:55.729Z,32.50
2023-04-22T12:36:23.541Z,32.14
2023-04-22T12:38:51.153Z,31.42
2023-04-22T12:41:17.864Z,33.24
2023-04-22T12:43:44.494Z,32.20
2023-04-22T12:46:11.327Z,32.54
2023-04-22T12:48:38.103Z,32.44
2023-04-22T12:51:06.443Z,31.16
2023-04-22T12:53:33.419Z,32.18
2023-04-22T12:56:00.041Z,31.50
2023-04-22T12:58:26.730Z,32.05
2023-04-22T13:00:53.329Z,31.00
2023-04-22T13:03:20.049Z,31.77
2023-04-22T13:05:46.808Z,32.51
2023-04-22T13:08:13.387Z,31.28
2023-04-22T13:10:40.036Z,30.46
2023-04-22T13:15:37.670Z,30.84
2023-04-22T13:18:04.366Z,30.99
2023-04-22T13:20:30.915Z,30.64
2023-04-22T13:22:57.992Z,30.72
2023-04-22T13:25:24.601Z,31.16
2023-04-22T13:27:51.128Z,31.52
2023-04-22T13:30:17.723Z,30.22
2023-04-22T13:32:44.276Z,31.38
2023-04-22T13:35:11.389Z,28.80
2023-04-22T13:37:37.936Z,28.82
2023-04-22T13:40:06.059Z,27.76
2023-04-22T13:42:32.829Z,27.95
2023-04-22T13:44:59.410Z,28.28
2023-04-22T13:47:26.144Z,28.23
2023-04-22T13:49:52.776Z,27.19
2023-04-22T13:52:19.326Z,28.71
2023-04-22T13:54:46.095Z,29.55
2023-04-22T13:57:12.660Z,28.63
2023-04-22T13:59:41.563Z,28.90
2023-04-22T14:02:08.617Z,27.80
2023-04-22T14:04:37.847Z,27.48
2023-04-22T14:07:06.830Z,28.69
2023-04-22T14:09:34.551Z,28.23
2023-04-22T14:12:03.141Z,27.71
2023-04-22T14:14:29.864Z,27.37
2023-04-22T14:16:56.632Z,27.35
2023-04-22T14:19:25.088Z,27.11
2023-04-22T14:21:51.760Z,27.81
2023-04-22T14:24:19.424Z,25.48
2023-04-22T14:26:46.015Z,25.29
2023-04-22T14:29:12.547Z,26.67
2023-04-22T14:31:39.094Z,25.78
2023-04-22T14:34:05.869Z,26.25
2023-04-22T14:36:32.458Z,26.95
2023-04-22T14:38:59.038Z,28.05
2023-04-22T14:41:25.938Z,28.03
2023-04-22T14:43:52.649Z,27.78
2023-04-22T14:46:19.203Z,25.87
2023-04-22T14:48:45.729Z,24.71
2023-04-22T14:51:12.313Z,24.35
2023-04-22T14:53:38.951Z,23.90
2023-04-22T14:56:05.594Z,23.70
2023-04-22T14:58:32.140Z,24.84
2023-04-22T15:01:00.106Z,22.85
2023-04-22T15:03:27.075Z,22.37
2023-04-22T15:05:55.261Z,23.42
2023-04-22T15:08:22.217Z,23.73
2023-04-22T15:10:48.807Z,23.46
2023-04-22T15:13:15.403Z,21.89
2023-04-22T15:15:42.011Z,22.24
2023-04-22T15:18:08.982Z,24.07
2023-04-22T15:20:35.896Z,23.52
2023-04-22T15:23:02.802Z,23.54
2023-04-22T15:25:29.414Z,22.48
2023-04-22T15:27:57.280Z,23.36
2023-04-22T15:30:24.500Z,24.03
2023-04-22T15:32:51.061Z,24.49
2023-04-22T15:35:17.924Z,22.25
2023-04-22T15:37:45.328Z,21.57
2023-04-22T15:40:11.962Z,22.46
2023-04-22T15:42:38.485Z,23.31
2023-04-22T15:45:05.904Z,24.08
2023-04-22T15:47:33.432Z,24.62
2023-04-22T15:50:06.372Z,24.40
2023-04-22T15:52:33.536Z,27.02
2023-04-22T15:55:01.875Z,27.66
2023-04-22T15:57:28.854Z,27.61
2023-04-22T16:00:06.925Z,29.46
2023-04-22T16:02:36.777Z,30.27
2023-04-22T16:05:04.217Z,30.00
2023-04-22T16:07:31.452Z,29.72
2023-04-22T16:09:58.082Z,29.98
2023-04-22T16:12:24.644Z,29.49
2023-04-22T16:14:51.274Z,30.57
2023-04-22T16:17:18.008Z,30.72
2023-04-22T16:19:44.855Z,31.00
2023-04-22T16:22:11.851Z,30.02
2023-04-22T16:24:38.397Z,30.54
2023-04-22T16:27:04.933Z,31.18
2023-04-22T16:29:31.465Z,31.76
2023-04-22T16:31:58.037Z,31.29
2023-04-22T16:34:24.590Z,31.12
2023-04-22T16:36:51.149Z,32.38
2023-04-22T16:39:19.094Z,31.61
2023-04-22T16:41:45.911Z,31.98
2023-04-22T16:44:12.478Z,32.28
2023-04-22T16:46:39.063Z,32.75
2023-04-22T16:49:08.451Z,31.68
2023-04-22T16:51:36.971Z,31.40
2023-04-22T16:54:04.053Z,30.85
2023-04-22T16:56:30.655Z,31.18
2023-04-22T16:58:57.212Z,32.13
2023-04-22T17:01:24.137Z,32.43
2023-04-22T17:03:51.019Z,32.82
2023-04-22T17:06:17.856Z,33.32
2023-04-22T17:08:44.418Z,34.21
2023-04-22T17:11:11.876Z,35.51
2023-04-22T17:13:38.427Z,34.98
2023-04-22T17:16:05.275Z,35.00
2023-04-22T17:18:31.823Z,36.15
2023-04-22T17:20:58.391Z,36.68
2023-04-22T17:23:26.863Z,36.79
2023-04-22T17:25:53.437Z,36.79
2023-04-22T17:28:20.036Z,37.39
2023-04-22T17:30:46.607Z,38.22
2023-04-22T17:33:13.158Z,38.09
2023-04-22T17:35:39.859Z,38.60
2023-04-22T17:38:06.408Z,38.82
2023-04-22T17:40:33.010Z,39.40
2023-04-22T17:42:59.581Z,39.75
2023-04-22T17:45:26.148Z,40.28
2023-04-22T17:47:52.816Z,40.78
2023-04-22T17:50:19.718Z,42.59
2023-04-22T17:52:46.344Z,42.84
2023-04-22T17:55:12.974Z,42.48
2023-04-22T17:57:39.542Z,44.03
2023-04-22T18:00:08.222Z,44.26
2023-04-22T18:02:34.951Z,44.69
2023-04-22T18:05:01.716Z,44.89
2023-04-22T18:07:28.273Z,45.23
2023-04-22T18:09:54.911Z,45.96
2023-04-22T18:12:24.162Z,46.06
2023-04-22T18:14:50.897Z,46.69
2023-04-22T18:17:20.093Z,46.46
2023-04-22T18:19:50.914Z,46.28
2023-04-22T18:22:18.624Z,46.23
2023-04-22T18:24:45.357Z,47.06
2023-04-22T18:27:11.931Z,46.43
2023-04-22T18:29:38.804Z,46.83
2023-04-22T18:32:05.801Z,46.69
2023-04-22T18:34:32.400Z,47.41
2023-04-22T18:36:59.040Z,47.16
2023-04-22T18:39:25.744Z,47.78
2023-04-22T18:41:52.380Z,48.11
2023-04-22T18:44:19.553Z,48.82
2023-04-22T18:46:46.107Z,48.76
2023-04-22T18:49:12.679Z,48.67
2023-04-22T18:51:42.045Z,48.87
2023-04-22T18:54:08.924Z,48.66
2023-04-22T18:56:35.522Z,47.32
2023-04-22T18:59:02.058Z,48.28
2023-04-22T19:01:28.779Z,47.81
2023-04-22T19:03:56.000Z,47.73
2023-04-22T19:06:22.642Z,47.59
2023-04-22T19:08:51.718Z,46.96
2023-04-22T19:11:18.251Z,47.00
2023-04-22T19:13:44.940Z,47.25
2023-04-22T19:16:11.546Z,47.04
2023-04-22T19:18:38.606Z,47.24
2023-04-22T19:21:06.906Z,46.35
2023-04-22T19:23:34.433Z,45.02
2023-04-22T19:26:01.901Z,44.68
2023-04-22T19:28:28.744Z,45.57
2023-04-22T19:30:55.557Z,46.40
2023-04-22T19:33:22.163Z,47.09
2023-04-22T19:35:48.728Z,47.42
2023-04-22T19:38:18.997Z,47.74
2023-04-22T19:40:45.663Z,48.35
2023-04-22T19:43:12.230Z,47.35
2023-04-22T19:45:38.743Z,47.02
2023-04-22T19:48:06.077Z,47.35
2023-04-22T19:50:34.325Z,48.65
2023-04-22T19:53:05.316Z,49.51
2023-04-22T19:55:36.643Z,50.29
2023-04-22T19:58:03.748Z,49.78
2023-04-22T20:00:32.158Z,48.93
2023-04-22T20:02:59.589Z,49.60
2023-04-22T20:05:26.889Z,50.20
2023-04-22T20:07:58.032Z,49.91
2023-04-22T20:10:26.068Z,50.93
2023-04-22T20:12:53.463Z,50.40
2023-04-22T20:15:20.360Z,50.35
2023-04-22T20:17:47.154Z,50.61
2023-04-22T20:20:15.591Z,50.14
2023-04-22T20:22:43.629Z,50.55
2023-04-22T20:25:15.407Z,50.32
2023-04-22T20:27:42.533Z,51.21
2023-04-22T20:30:10.336Z,51.38
2023-04-22T20:32:37.282Z,51.47
2023-04-22T20:35:05.714Z,51.19
2023-04-22T20:37:32.831Z,51.34
2023-04-22T20:40:04.516Z,51.19
2023-04-22T20:42:33.168Z,51.27
2023-04-22T20:44:59.711Z,51.78
2023-04-22T20:47:26.316Z,52.33
2023-04-22T20:49:52.844Z,52.11
2023-04-22T20:52:19.369Z,51.79
2023-04-22T20:54:46.211Z,51.89
2023-04-22T20:57:13.011Z,52.03
2023-04-22T20:59:39.615Z,51.65
2023-04-22T21:02:07.788Z,52.41
2023-04-22T21:04:34.650Z,51.68
2023-04-22T21:07:05.254Z,52.24
2023-04-22T21:09:32.667Z,51.68
2023-04-22T21:11:59.591Z,51.37
2023-04-22T21:14:26.887Z,50.63
2023-04-22T21:17:02.973Z,51.12
2023-04-22T21:19:34.147Z,50.06
2023-04-22T21:22:07.755Z,50.17
2023-04-22T21:24:35.181Z,50.24
2023-04-22T21:27:01.915Z,50.19
2023-04-22T21:29:28.977Z,50.23
2023-04-22T21:32:08.128Z,50.60
2023-04-22T21:34:35.766Z,51.24
2023-04-22T21:37:02.614Z,51.17
2023-04-22T21:39:29.705Z,50.92
2023-04-22T21:41:56.302Z,50.92
2023-04-22T21:44:22.835Z,50.61
2023-04-22T21:46:49.388Z,50.98
2023-04-22T21:49:16.089Z,50.75
2023-04-22T21:51:42.839Z,51.99
2023-04-22T21:54:09.494Z,51.73
2023-04-22T21:56:36.061Z,51.43
2023-04-22T21:59:02.711Z,50.48
2023-04-22T22:01:29.286Z,51.02
2023-04-22T22:03:55.962Z,51.72
2023-04-22T22:06:22.657Z,51.54
2023-04-22T22:08:49.290Z,50.62
2023-04-22T22:11:27.637Z,51.24
2023-04-22T22:13:57.177Z,51.41
2023-04-22T22:16:24.706Z,51.98
2023-04-22T22:18:51.981Z,51.38
2023-04-22T22:21:18.744Z,51.49
2023-04-22T22:23:45.296Z,52.23
2023-04-22T22:26:11.906Z,52.29
2023-04-22T22:28:39.115Z,52.41
2023-04-22T22:31:05.788Z,53.35
2023-04-22T22:33:32.382Z,53.49
2023-04-22T22:35:58.985Z,54.56
2023-04-22T22:38:25.731Z,55.20
2023-04-22T22:40:52.244Z,54.18
2023-04-22T22:43:18.837Z,53.93
2023-04-22T22:45:45.661Z,54.93
2023-04-22T22:48:12.455Z,54.01
2023-04-22T22:50:39.865Z,54.08
2023-04-22T22:53:06.548Z,54.67
2023-04-22T22:55:34.059Z,54.11
2023-04-22T22:58:00.798Z,54.60
2023-04-22T23:00:27.675Z,54.31
2023-04-22T23:02:54.862Z,54.73
2023-04-22T23:05:22.079Z,55.17
2023-04-22T23:07:48.725Z,54.99
2023-04-22T23:10:15.742Z,55.13
2023-04-22T23:12:42.497Z,55.58
2023-04-22T23:15:09.716Z,55.59
2023-04-22T23:17:36.867Z,55.71
2023-04-22T23:20:04.084Z,55.13
2023-04-22T23:22:32.114Z,55.50
2023-04-22T23:24:58.997Z,55.91
2023-04-22T23:27:25.916Z,54.88
2023-04-22T23:29:52.704Z,54.62
2023-04-22T23:32:20.686Z,54.94
2023-04-22T23:34:49.639Z,55.30
2023-04-22T23:37:18.881Z,55.54
2023-04-22T23:39:45.478Z,55.55
2023-04-22T23:42:12.021Z,55.64
2023-04-22T23:44:38.857Z,55.64
2023-04-22T23:47:05.657Z,55.97
2023-04-22T23:49:32.383Z,54.91
2023-04-22T23:51:59.535Z,54.62
2023-04-22T23:54:26.665Z,55.20
2023-04-22T23:56:53.647Z,55.24
2023-04-22T23:59:20.673Z,55.48
